Aérodrome :
LOGIN :

S'inscrire | Disclaimer

   EN    FR    IT 

 










Légende :    VFR   VFR Marginal   IFR   IFR Intensif   IFR Très Intensif
Visi : 
Plafond : 
>= 8 km
>= 3000ft
5 à 8 km
1000 à 3000 ft
1500m à 5 km
500 à 1000 ft
800 à 1500m
200 à 500 ft
< 800m
< 200 ft
Symboles :   Orages  Brouillard  Fortes neiges  Fortes précipitations  Vent > 20 kt
SIGMETs :   Divers  Orages  Givrage  Turbulence  Onde Orograph.  Cendres Volcan.






- Altitude de l'aérodrome : 1966 ft
- Code IATA : SGE


EDGS - Siegerland

DERNIER METAR :
  • 282220Z AUTO 28006KT 260V320 0400 R13/0450N // SCT000/// OVC003/// 05/05 Q1012

METARs EXPIRÉS :
  • 282150Z AUTO 29006KT 0350 R13/0400N // VV/// 05/05 Q1012
  • 282120Z AUTO 25003KT 0500 R13/0600N // VV/// 05/05 Q1012
  • 282050Z AUTO 23003KT 0700 R13/0800U // VV/// 05/04 Q1012
  • 282020Z AUTO 24004KT 0650 R13/0750N // SCT000/// OVC004/// 04/04 Q1012
  • 281950Z AUTO 24005KT 1400 R13/1800D // SCT000/// OVC005/// 04/04 Q1012

TAF TAF EDGS
Valide du 28 à 15h jusqu'au 29 à 00h UTC


281400Z 2815/2824 20005KT 6000 OVC002
TEMPO 2815/2824 0350 FG OVC000
BECMG 2818/2821 27005KT



MET'MAP, la Météo Aéronautique d'un coup d'oeil ! - Copyright ORBIFLY Décembre 2007 - Disclaimer

ORBIFLY MET'MAP TEAM :

Programmation & Développement : Alexandra Zaïnal
Sur une idée originale de : Baudouin d'Aumeries
Soutien technique & logistique : Manuel Goepfert
Assistance : Marc-Olivier Méhu




SOURCES & CREDITS :

   NOAA